Observations for LORIENT LANN BIHOUE, France (LFRH)

LFRH 170030Z AUTO 36002KT CAVOK 15/12 Q1017 NOSIG   
LFRH 170000Z AUTO 34003KT CAVOK 16/12 Q1017 NOSIG   
LFRH 162330Z AUTO 35003KT CAVOK 16/12 Q1017 NOSIG   
LFRH 162300Z AUTO 03002KT CAVOK 17/13 Q1017 NOSIG   
LFRH 162230Z AUTO VRB03KT CAVOK 17/13 Q1018 NOSIG   
LFRH 162200Z AUTO 34005KT CAVOK 18/13 Q1018 NOSIG   
LFRH 162130Z AUTO 33005KT CAVOK 18/14 Q1018 NOSIG   
LFRH 162100Z AUTO 27003KT CAVOK 18/15 Q1018 NOSIG   
LFRH 162030Z AUTO 25005KT CAVOK 18/15 Q1018 NOSIG   
LFRH 162000Z AUTO 25006KT CAVOK 19/16 Q1018 NOSIG   
LFRH 161930Z AUTO 25007KT CAVOK 21/15 Q1018 NOSIG   
LFRH 161900Z AUTO 25007KT CAVOK 22/15 Q1017 NOSIG   
LFRH 161830Z AUTO 25008KT CAVOK 23/14 Q1017 NOSIG   
LFRH 161800Z AUTO 26009KT CAVOK 23/12 Q1017 NOSIG   
LFRH 161730Z AUTO 27010KT CAVOK 24/12 Q1018 NOSIG   
LFRH 161700Z AUTO 26010KT CAVOK 24/12 Q1018 NOSIG   
LFRH 161630Z AUTO 26012KT CAVOK 23/11 Q1018 NOSIG   
LFRH 161600Z AUTO 26011KT CAVOK 24/12 Q1018 NOSIG   
LFRH 161530Z AUTO 25012KT CAVOK 23/14 Q1018 NOSIG   
LFRH 161500Z AUTO 26011KT CAVOK 24/15 Q1018 NOSIG   
LFRH 161430Z AUTO 26012KT CAVOK 24/13 Q1018 NOSIG   
LFRH 161400Z AUTO 24011KT 210V280 CAVOK 25/13 Q1018 NOSIG   
LFRH 161330Z AUTO 23011KT 210V270 CAVOK 24/13 Q1019 NOSIG   
LFRH 161300Z AUTO 24011KT CAVOK 24/12 Q1019 NOSIG   
LFRH 161230Z AUTO 25010KT CAVOK 25/12 Q1019 NOSIG   
LFRH 161200Z AUTO 25009KT 210V280 CAVOK 24/12 Q1019 NOSIG   
LFRH 161130Z AUTO 24009KT 210V280 CAVOK 24/13 Q1019 NOSIG   
LFRH 161100Z AUTO 24008KT 200V280 CAVOK 24/13 Q1019 NOSIG   
LFRH 161030Z AUTO 25005KT 220V320 9999 FEW042 24/13 Q1019 NOSIG 
LFRH 161000Z AUTO 24004KT 170V280 CAVOK 24/14 Q1019 NOSIG   
LFRH 160930Z AUTO VRB03KT CAVOK 23/12 Q1019 NOSIG   
LFRH 160900Z AUTO VRB03KT CAVOK 23/13 Q1019 NOSIG   
LFRH 160830Z AUTO VRB02KT CAVOK 22/12 Q1019 NOSIG   
LFRH 160800Z AUTO VRB02KT CAVOK 21/13 Q1019 NOSIG   
LFRH 160730Z AUTO 07003KT 020V130 CAVOK 19/13 Q1019 NOSIG   
LFRH 160700Z AUTO 06004KT CAVOK 18/13 Q1019 NOSIG   
LFRH 160630Z AUTO 03005KT CAVOK 16/13 Q1019 NOSIG   
LFRH 160600Z AUTO 03005KT CAVOK 15/13 Q1019 NOSIG   
LFRH 160530Z AUTO 03005KT CAVOK 13/12 Q1019 NOSIG   
LFRH 160500Z AUTO 03005KT CAVOK 12/11 Q1019 NOSIG   
LFRH 160430Z AUTO 03004KT CAVOK 12/10 Q1019 NOSIG   
LFRH 160400Z AUTO 05005KT CAVOK 13/11 Q1019 NOSIG   
LFRH 160330Z AUTO 03006KT CAVOK 13/10 Q1019 NOSIG   
LFRH 160300Z AUTO 03005KT CAVOK 13/11 Q1019 NOSIG   
LFRH 160230Z AUTO 02006KT CAVOK 14/11 Q1019 NOSIG   
LFRH 160200Z AUTO 04004KT CAVOK 14/11 Q1019 NOSIG   
LFRH 160130Z AUTO 05004KT CAVOK 14/11 Q1019 NOSIG   
LFRH 160100Z AUTO 04003KT CAVOK 14/11 Q1020 NOSIG   
LFRH 160030Z AUTO 02006KT CAVOK 14/11 Q1020 NOSIG   
LFRH 160000Z AUTO 03005KT CAVOK 15/12 Q1020 NOSIG